createdAt,value
2018-12-03T00:01:33.648Z,18.16
2018-12-03T00:04:00.023Z,18.16
2018-12-03T00:06:26.331Z,18.14
2018-12-03T00:08:52.724Z,18.13
2018-12-03T00:11:19.168Z,18.13
2018-12-03T00:13:45.500Z,18.13
2018-12-03T00:16:11.853Z,18.14
2018-12-03T00:18:38.182Z,18.12
2018-12-03T00:21:04.592Z,18.13
2018-12-03T00:23:31.095Z,18.11
2018-12-03T00:25:57.509Z,18.10
2018-12-03T00:28:23.856Z,18.10
2018-12-03T00:30:50.276Z,18.11
2018-12-03T00:33:16.651Z,18.10
2018-12-03T00:35:43.089Z,18.12
2018-12-03T00:38:09.416Z,18.11
2018-12-03T00:40:35.826Z,18.09
2018-12-03T00:43:02.238Z,18.10
2018-12-03T00:45:28.788Z,18.10
2018-12-03T00:47:55.197Z,18.09
2018-12-03T00:50:21.557Z,18.08
2018-12-03T00:52:47.917Z,18.08
2018-12-03T00:55:14.321Z,18.06
2018-12-03T00:57:40.726Z,18.08
2018-12-03T01:00:07.055Z,18.08
2018-12-03T01:02:33.393Z,18.04
2018-12-03T01:04:59.722Z,18.02
2018-12-03T01:07:26.073Z,18.02
2018-12-03T01:09:52.608Z,18.03
2018-12-03T01:12:18.934Z,18.00
2018-12-03T01:14:45.331Z,18.04
2018-12-03T01:17:11.679Z,18.03
2018-12-03T01:19:38.111Z,18.02
2018-12-03T01:22:04.540Z,18.01
2018-12-03T01:24:30.880Z,18.01
2018-12-03T01:26:57.232Z,18.00
2018-12-03T01:29:23.632Z,18.01
2018-12-03T01:31:49.904Z,18.01
2018-12-03T01:34:16.232Z,18.01
2018-12-03T01:36:42.575Z,17.98
2018-12-03T01:39:08.907Z,17.98
2018-12-03T01:41:35.238Z,17.98
2018-12-03T01:44:01.579Z,17.96
2018-12-03T01:46:27.946Z,17.98
2018-12-03T01:48:54.276Z,17.99
2018-12-03T01:51:20.696Z,17.98
2018-12-03T01:53:47.097Z,17.94
2018-12-03T01:56:13.408Z,17.97
2018-12-03T01:58:39.744Z,17.94
2018-12-03T02:01:06.109Z,17.97
2018-12-03T02:03:32.462Z,17.96
2018-12-03T02:05:58.790Z,17.94
2018-12-03T02:08:25.176Z,17.94
2018-12-03T02:10:51.517Z,17.95
2018-12-03T02:13:17.850Z,17.99
2018-12-03T02:15:44.249Z,17.98
2018-12-03T02:18:10.652Z,18.05
2018-12-03T02:20:36.922Z,18.08
2018-12-03T02:23:03.344Z,18.13
2018-12-03T02:25:29.668Z,18.18
2018-12-03T02:27:55.999Z,18.27
2018-12-03T02:30:22.488Z,18.31
2018-12-03T02:32:48.844Z,18.34
2018-12-03T02:35:15.132Z,18.41
2018-12-03T02:37:41.520Z,18.44
2018-12-03T02:40:07.844Z,18.46
2018-12-03T02:42:34.383Z,18.51
2018-12-03T02:45:00.747Z,18.54
2018-12-03T02:47:27.071Z,18.56
2018-12-03T02:49:53.549Z,18.57
2018-12-03T02:52:20.032Z,18.64
2018-12-03T02:54:46.532Z,18.71
2018-12-03T02:57:12.804Z,18.73
2018-12-03T02:59:39.187Z,18.75
2018-12-03T03:02:05.544Z,18.78
2018-12-03T03:04:31.890Z,18.85
2018-12-03T03:06:58.253Z,18.87
2018-12-03T03:09:24.656Z,18.91
2018-12-03T03:11:51.065Z,18.91
2018-12-03T03:14:17.641Z,18.95
2018-12-03T03:16:44.022Z,19.01
2018-12-03T03:19:10.300Z,19.05
2018-12-03T03:21:37.945Z,19.06
2018-12-03T03:24:02.998Z,19.08
2018-12-03T03:26:31.594Z,19.08
2018-12-03T03:28:57.929Z,19.12
2018-12-03T03:31:24.415Z,19.14
2018-12-03T03:33:50.772Z,19.16
2018-12-03T03:36:17.234Z,19.19
2018-12-03T03:38:43.562Z,19.21
2018-12-03T03:41:09.899Z,19.24
2018-12-03T03:43:36.234Z,19.23
2018-12-03T03:46:02.590Z,19.26
2018-12-03T03:48:28.981Z,19.28
2018-12-03T03:50:55.241Z,19.32
2018-12-03T03:53:21.559Z,19.34
2018-12-03T03:55:47.954Z,19.37
2018-12-03T03:58:14.282Z,19.42
2018-12-03T04:00:40.675Z,19.45
2018-12-03T04:03:07.063Z,19.46
2018-12-03T04:05:33.409Z,19.48
2018-12-03T04:07:59.810Z,19.48
2018-12-03T04:10:26.149Z,19.55
2018-12-03T04:12:52.507Z,19.56
2018-12-03T04:15:19.040Z,19.62
2018-12-03T04:17:45.369Z,19.63
2018-12-03T04:20:11.710Z,19.69
2018-12-03T04:22:38.054Z,19.72
2018-12-03T04:25:04.434Z,19.77
2018-12-03T04:27:30.869Z,19.80
2018-12-03T04:29:57.196Z,19.83
2018-12-03T04:32:23.533Z,19.83
2018-12-03T04:34:49.885Z,19.90
2018-12-03T04:37:16.228Z,19.90
2018-12-03T04:39:42.553Z,19.92
2018-12-03T04:42:08.950Z,19.96
2018-12-03T04:44:35.398Z,20.02
2018-12-03T04:47:01.745Z,20.03
2018-12-03T04:49:28.075Z,20.07
2018-12-03T04:51:54.441Z,20.06
2018-12-03T04:54:20.780Z,20.08
2018-12-03T04:56:47.112Z,20.13
2018-12-03T04:59:13.484Z,20.07
2018-12-03T05:01:39.782Z,19.99
2018-12-03T05:04:06.113Z,20.06
2018-12-03T05:06:32.512Z,20.04
2018-12-03T05:08:58.841Z,20.10
2018-12-03T05:11:25.171Z,20.05
2018-12-03T05:13:51.499Z,20.11
2018-12-03T05:16:17.832Z,20.14
2018-12-03T05:18:44.162Z,20.20
2018-12-03T05:21:10.494Z,20.20
2018-12-03T05:23:36.829Z,20.22
2018-12-03T05:26:03.175Z,20.23
2018-12-03T05:28:29.546Z,20.23
2018-12-03T05:30:55.903Z,20.24
2018-12-03T05:33:22.236Z,20.30
2018-12-03T05:35:48.571Z,20.26
2018-12-03T05:38:15.020Z,20.35
2018-12-03T05:40:41.391Z,20.26
2018-12-03T05:43:07.773Z,20.30
2018-12-03T05:45:34.131Z,20.26
2018-12-03T05:48:00.504Z,20.35
2018-12-03T05:50:26.886Z,20.36
2018-12-03T05:52:53.237Z,20.38
2018-12-03T05:55:19.584Z,20.38
2018-12-03T05:57:45.917Z,20.45
2018-12-03T06:00:12.379Z,20.43
2018-12-03T06:02:38.718Z,20.44
2018-12-03T06:05:05.046Z,20.48
2018-12-03T06:07:31.375Z,20.52
2018-12-03T06:09:57.708Z,20.51
2018-12-03T06:12:24.043Z,20.53
2018-12-03T06:14:50.416Z,20.57
2018-12-03T06:17:16.750Z,20.61
2018-12-03T06:19:43.085Z,20.52
2018-12-03T06:22:09.417Z,20.57
2018-12-03T06:24:35.785Z,20.51
2018-12-03T06:27:02.117Z,20.59
2018-12-03T06:29:28.478Z,20.69
2018-12-03T06:31:54.853Z,20.69
2018-12-03T06:34:21.195Z,20.71
2018-12-03T06:36:47.742Z,20.63
2018-12-03T06:39:14.229Z,20.60
2018-12-03T06:41:40.515Z,20.73
2018-12-03T06:44:06.846Z,20.85
2018-12-03T06:46:33.178Z,20.87
2018-12-03T06:48:59.599Z,20.90
2018-12-03T06:51:26.013Z,20.95
2018-12-03T06:53:52.361Z,21.00
2018-12-03T06:56:18.692Z,20.90
2018-12-03T06:58:45.022Z,20.98
2018-12-03T07:01:11.372Z,21.11
2018-12-03T07:03:37.762Z,21.14
2018-12-03T07:06:04.221Z,21.09
2018-12-03T07:08:30.566Z,21.13
2018-12-03T07:10:56.932Z,21.19
2018-12-03T07:13:23.305Z,21.14
2018-12-03T07:15:49.700Z,21.23
2018-12-03T07:18:16.026Z,21.29
2018-12-03T07:20:42.400Z,21.26
2018-12-03T07:23:08.828Z,21.22
2018-12-03T07:25:35.266Z,21.17
2018-12-03T07:28:01.591Z,21.23
2018-12-03T07:30:27.987Z,21.23
2018-12-03T07:32:54.320Z,21.45
2018-12-03T07:35:21.118Z,21.42
2018-12-03T07:37:48.566Z,21.40
2018-12-03T07:40:14.897Z,21.46
2018-12-03T07:42:41.286Z,21.17
2018-12-03T07:45:07.611Z,21.38
2018-12-03T07:47:33.959Z,21.31
2018-12-03T07:50:00.330Z,21.49
2018-12-03T07:52:26.669Z,21.35
2018-12-03T07:54:52.998Z,21.35
2018-12-03T07:57:19.495Z,21.66
2018-12-03T07:59:45.816Z,21.65
2018-12-03T08:02:12.168Z,21.64
2018-12-03T08:04:38.519Z,21.78
2018-12-03T08:07:04.859Z,21.57
2018-12-03T08:09:31.240Z,21.80
2018-12-03T08:11:57.582Z,21.89
2018-12-03T08:14:23.914Z,21.82
2018-12-03T08:16:51.354Z,21.84
2018-12-03T08:19:17.678Z,21.93
2018-12-03T08:21:44.013Z,22.02
2018-12-03T08:24:10.348Z,21.97
2018-12-03T08:26:36.722Z,21.97
2018-12-03T08:29:03.089Z,22.01
2018-12-03T08:31:29.432Z,22.15
2018-12-03T08:33:55.828Z,22.14
2018-12-03T08:36:22.189Z,22.06
2018-12-03T08:38:48.512Z,22.02
2018-12-03T08:41:14.945Z,22.05
2018-12-03T08:43:41.355Z,22.00
2018-12-03T08:46:07.738Z,22.19
2018-12-03T08:48:34.049Z,22.06
2018-12-03T08:51:00.454Z,22.15
2018-12-03T08:53:26.812Z,22.33
2018-12-03T08:55:53.152Z,22.15
2018-12-03T08:58:19.549Z,22.27
2018-12-03T09:00:46.874Z,22.30
2018-12-03T09:03:13.342Z,22.52
2018-12-03T09:05:40.717Z,22.32
2018-12-03T09:08:07.143Z,22.48
2018-12-03T09:10:33.583Z,22.45
2018-12-03T09:12:59.987Z,22.45
2018-12-03T09:15:26.373Z,22.49
2018-12-03T09:17:52.757Z,22.51
2018-12-03T09:20:19.195Z,22.52
2018-12-03T09:22:45.518Z,22.76
2018-12-03T09:25:11.856Z,22.66
2018-12-03T09:27:38.241Z,22.75
2018-12-03T09:30:04.747Z,22.75
2018-12-03T09:32:31.251Z,22.74
2018-12-03T09:34:57.609Z,22.76
2018-12-03T09:37:24.005Z,22.85
2018-12-03T09:39:50.401Z,22.84
2018-12-03T09:42:16.781Z,22.88
2018-12-03T09:44:43.246Z,22.87
2018-12-03T09:47:09.623Z,22.95
2018-12-03T09:49:35.975Z,23.08
2018-12-03T09:52:02.269Z,22.97
2018-12-03T09:54:28.618Z,23.14
2018-12-03T09:56:55.060Z,23.11
2018-12-03T09:59:21.427Z,23.06
2018-12-03T10:01:47.803Z,23.24
2018-12-03T10:04:14.131Z,23.14
2018-12-03T10:06:40.501Z,23.10
2018-12-03T10:09:06.838Z,23.12
2018-12-03T10:11:33.166Z,23.15
2018-12-03T10:13:59.498Z,23.08
2018-12-03T10:16:25.941Z,23.09
2018-12-03T10:18:52.277Z,23.05
2018-12-03T10:21:18.654Z,23.20
2018-12-03T10:23:45.040Z,23.25
2018-12-03T10:26:11.437Z,23.21
2018-12-03T10:28:37.763Z,23.06
2018-12-03T10:31:04.128Z,23.23
2018-12-03T10:33:30.542Z,23.16
2018-12-03T10:35:56.915Z,23.12
2018-12-03T10:38:23.299Z,23.17
2018-12-03T10:40:49.746Z,23.10
2018-12-03T10:43:16.080Z,23.17
2018-12-03T10:45:42.492Z,23.19
2018-12-03T10:48:08.823Z,23.13
2018-12-03T10:50:35.213Z,23.32
2018-12-03T10:53:01.588Z,23.15
2018-12-03T10:55:28.279Z,23.11
2018-12-03T10:57:54.675Z,23.19
2018-12-03T11:00:21.035Z,23.25
2018-12-03T11:02:47.647Z,23.21
2018-12-03T11:05:14.006Z,23.16
2018-12-03T11:07:40.753Z,23.22
2018-12-03T11:10:07.176Z,23.28
2018-12-03T11:12:33.581Z,23.41
2018-12-03T11:15:00.040Z,23.46
2018-12-03T11:17:26.509Z,23.47
2018-12-03T11:19:53.958Z,23.45
2018-12-03T11:22:20.503Z,23.53
2018-12-03T11:24:46.921Z,23.63
2018-12-03T11:27:13.272Z,23.67
2018-12-03T11:29:39.602Z,23.69
2018-12-03T11:32:06.121Z,23.65
2018-12-03T11:34:32.467Z,23.82
2018-12-03T11:36:58.798Z,23.74
2018-12-03T11:39:25.179Z,23.88
2018-12-03T11:41:51.519Z,23.94
2018-12-03T11:44:20.026Z,23.82
2018-12-03T11:46:46.432Z,23.82
2018-12-03T11:49:12.771Z,23.97
2018-12-03T11:51:39.110Z,23.89
2018-12-03T11:54:05.544Z,24.02
2018-12-03T11:56:32.056Z,24.11
2018-12-03T11:58:58.391Z,24.13
2018-12-03T12:01:24.758Z,24.07
2018-12-03T12:03:51.310Z,23.99
2018-12-03T12:06:17.704Z,24.00
2018-12-03T12:08:44.121Z,24.21
2018-12-03T12:11:10.458Z,24.14
2018-12-03T12:13:36.918Z,24.25
2018-12-03T12:16:03.265Z,24.19
2018-12-03T12:18:29.662Z,24.34
2018-12-03T12:20:56.089Z,24.32
2018-12-03T12:23:22.513Z,24.25
2018-12-03T12:25:48.856Z,24.20
2018-12-03T12:28:15.291Z,24.31
2018-12-03T12:30:41.623Z,24.35
2018-12-03T12:33:07.955Z,24.16
2018-12-03T12:35:34.304Z,24.32
2018-12-03T12:38:00.693Z,24.32
2018-12-03T12:40:27.166Z,24.26
2018-12-03T12:42:53.507Z,24.49
2018-12-03T12:45:19.897Z,24.33
2018-12-03T12:47:46.380Z,24.39
2018-12-03T12:50:12.780Z,24.32
2018-12-03T12:52:39.151Z,24.40
2018-12-03T12:55:05.561Z,24.44
2018-12-03T12:57:31.940Z,24.26
2018-12-03T12:59:58.439Z,24.36
2018-12-03T13:02:25.005Z,24.44
2018-12-03T13:04:51.521Z,24.35
2018-12-03T13:07:17.901Z,24.33
2018-12-03T13:09:44.293Z,24.34
2018-12-03T13:12:10.629Z,24.27
2018-12-03T13:14:37.006Z,24.31
2018-12-03T13:17:03.454Z,24.35
2018-12-03T13:19:29.794Z,24.36
2018-12-03T13:21:56.174Z,24.34
2018-12-03T13:24:22.561Z,24.34
2018-12-03T13:26:48.965Z,24.24
2018-12-03T13:29:15.378Z,24.42
2018-12-03T13:31:41.747Z,24.38
2018-12-03T13:34:08.139Z,24.30
2018-12-03T13:36:34.573Z,24.43
2018-12-03T13:39:01.005Z,24.32
2018-12-03T13:41:27.525Z,24.43
2018-12-03T13:43:54.013Z,24.40
2018-12-03T13:46:20.345Z,24.49
2018-12-03T13:48:46.732Z,24.38
2018-12-03T13:51:13.212Z,24.40
2018-12-03T13:53:39.733Z,24.34
2018-12-03T13:56:08.353Z,24.40
2018-12-03T13:58:34.775Z,24.40
2018-12-03T14:01:01.195Z,24.54
2018-12-03T14:03:27.537Z,24.59
2018-12-03T14:05:56.364Z,24.56
2018-12-03T14:08:22.726Z,24.60
2018-12-03T14:10:49.075Z,24.46
2018-12-03T14:13:15.598Z,24.29
2018-12-03T14:15:41.976Z,24.55
2018-12-03T14:18:08.337Z,24.40
2018-12-03T14:20:34.702Z,24.38
2018-12-03T14:23:03.208Z,24.42
2018-12-03T14:25:29.681Z,24.49
2018-12-03T14:27:56.028Z,24.34
2018-12-03T14:30:22.474Z,24.41
2018-12-03T14:32:48.920Z,24.44
2018-12-03T14:35:15.430Z,24.35
2018-12-03T14:37:41.787Z,24.30
2018-12-03T14:40:08.156Z,24.33
2018-12-03T14:42:34.628Z,24.38
2018-12-03T14:45:01.035Z,24.43
2018-12-03T14:47:27.401Z,24.29
2018-12-03T14:49:53.822Z,24.29
2018-12-03T14:52:20.260Z,24.27
2018-12-03T14:54:46.588Z,24.32
2018-12-03T14:57:12.991Z,24.36
2018-12-03T14:59:41.539Z,24.18
2018-12-03T15:02:07.935Z,24.12
2018-12-03T15:04:34.320Z,24.13
2018-12-03T15:07:00.874Z,24.19
2018-12-03T15:09:27.303Z,24.18
2018-12-03T15:11:53.659Z,24.19
2018-12-03T15:14:20.016Z,24.23
2018-12-03T15:16:46.538Z,24.23
2018-12-03T15:19:12.900Z,24.13
2018-12-03T15:21:39.263Z,24.14
2018-12-03T15:24:05.698Z,24.20
2018-12-03T15:26:32.378Z,24.20
2018-12-03T15:28:58.806Z,24.11
2018-12-03T15:31:25.159Z,24.02
2018-12-03T15:33:51.531Z,23.98
2018-12-03T15:36:17.890Z,24.07
2018-12-03T15:38:44.239Z,23.96
2018-12-03T15:41:10.577Z,23.89
2018-12-03T15:43:36.906Z,23.96
2018-12-03T15:46:03.287Z,23.94
2018-12-03T15:48:29.701Z,23.99
2018-12-03T15:50:56.080Z,23.97
2018-12-03T15:53:22.382Z,23.89
2018-12-03T15:55:48.742Z,23.91
2018-12-03T15:58:15.129Z,23.84
2018-12-03T16:00:41.606Z,23.86
2018-12-03T16:03:08.062Z,23.80
2018-12-03T16:05:34.369Z,23.77
2018-12-03T16:08:01.857Z,23.75
2018-12-03T16:10:27.098Z,23.80
2018-12-03T16:12:53.460Z,23.70
2018-12-03T16:15:19.871Z,23.70
2018-12-03T16:17:46.191Z,23.60
2018-12-03T16:20:12.497Z,23.66
2018-12-03T16:22:38.907Z,23.71
2018-12-03T16:25:05.303Z,23.62
2018-12-03T16:27:31.586Z,23.65
2018-12-03T16:29:58.064Z,23.62
2018-12-03T16:32:24.480Z,23.66
2018-12-03T16:34:50.801Z,23.62
2018-12-03T16:37:17.211Z,23.56
2018-12-03T16:39:43.555Z,23.51
2018-12-03T16:42:09.888Z,23.56
2018-12-03T16:44:36.251Z,23.65
2018-12-03T16:47:02.576Z,23.48
2018-12-03T16:49:29.036Z,23.58
2018-12-03T16:51:55.376Z,23.45
2018-12-03T16:54:21.711Z,23.46
2018-12-03T16:56:48.059Z,23.46
2018-12-03T16:59:14.425Z,23.43
2018-12-03T17:01:40.770Z,23.40
2018-12-03T17:04:07.175Z,23.38
2018-12-03T17:06:33.515Z,23.35
2018-12-03T17:08:59.844Z,23.39
2018-12-03T17:11:26.225Z,23.35
2018-12-03T17:13:52.608Z,23.35
2018-12-03T17:16:19.076Z,23.35
2018-12-03T17:18:45.412Z,23.31
2018-12-03T17:21:11.767Z,23.26
2018-12-03T17:23:38.120Z,23.28
2018-12-03T17:26:04.494Z,23.30
2018-12-03T17:28:30.830Z,23.22
2018-12-03T17:30:57.197Z,23.17
2018-12-03T17:33:23.570Z,23.12
2018-12-03T17:35:49.976Z,23.11
2018-12-03T17:38:16.321Z,23.11
2018-12-03T17:40:42.697Z,23.03
2018-12-03T17:43:09.051Z,23.07
2018-12-03T17:45:35.384Z,22.97
2018-12-03T17:48:01.748Z,23.01
2018-12-03T17:50:28.179Z,22.97
2018-12-03T17:52:54.528Z,22.81
2018-12-03T17:55:20.861Z,22.85
2018-12-03T17:57:47.251Z,22.90
2018-12-03T18:00:13.652Z,22.89
2018-12-03T18:02:39.990Z,22.78
2018-12-03T18:05:06.401Z,22.76
2018-12-03T18:07:32.775Z,22.73
2018-12-03T18:09:59.169Z,22.73
2018-12-03T18:12:25.502Z,22.66
2018-12-03T18:14:51.833Z,22.65
2018-12-03T18:17:18.213Z,22.61
2018-12-03T18:19:44.552Z,22.59
2018-12-03T18:22:10.972Z,22.52
2018-12-03T18:24:37.237Z,22.54
2018-12-03T18:27:03.639Z,22.51
2018-12-03T18:29:29.956Z,22.50
2018-12-03T18:31:56.376Z,22.49
2018-12-03T18:34:22.764Z,22.46
2018-12-03T18:36:49.089Z,22.45
2018-12-03T18:39:15.422Z,22.43
2018-12-03T18:41:41.765Z,22.42
2018-12-03T18:44:08.107Z,22.40
2018-12-03T18:46:34.439Z,22.37
2018-12-03T18:49:00.858Z,22.38
2018-12-03T18:51:27.200Z,22.36
2018-12-03T18:53:53.544Z,22.33
2018-12-03T18:56:19.994Z,22.33
2018-12-03T18:58:46.354Z,22.30
2018-12-03T19:01:12.718Z,22.27
2018-12-03T19:03:39.170Z,22.27
2018-12-03T19:06:05.475Z,22.22
2018-12-03T19:08:31.828Z,22.23
2018-12-03T19:10:58.182Z,22.22
2018-12-03T19:13:24.589Z,22.20
2018-12-03T19:15:50.935Z,22.16
2018-12-03T19:18:17.334Z,22.16
2018-12-03T19:20:43.666Z,22.13
2018-12-03T19:23:10.097Z,22.13
2018-12-03T19:25:36.441Z,22.12
2018-12-03T19:28:02.776Z,22.09
2018-12-03T19:30:29.177Z,22.08
2018-12-03T19:32:55.545Z,22.06
2018-12-03T19:35:21.887Z,22.03
2018-12-03T19:37:48.224Z,22.04
2018-12-03T19:40:14.564Z,22.00
2018-12-03T19:42:40.961Z,22.00
2018-12-03T19:45:07.298Z,22.01
2018-12-03T19:47:33.629Z,22.00
2018-12-03T19:50:00.028Z,21.98
2018-12-03T19:52:26.433Z,21.93
2018-12-03T19:54:52.809Z,21.92
2018-12-03T19:57:19.187Z,21.91
2018-12-03T19:59:45.582Z,21.90
2018-12-03T20:02:11.929Z,21.87
2018-12-03T20:04:38.261Z,21.87
2018-12-03T20:07:04.592Z,21.86
2018-12-03T20:09:31.006Z,21.84
2018-12-03T20:11:57.309Z,21.83
2018-12-03T20:14:23.633Z,21.81
2018-12-03T20:16:49.963Z,21.80
2018-12-03T20:19:16.287Z,21.82
2018-12-03T20:21:42.661Z,21.80
2018-12-03T20:24:08.952Z,21.78
2018-12-03T20:26:35.360Z,21.75
2018-12-03T20:29:01.747Z,21.75
2018-12-03T20:31:28.087Z,21.73
2018-12-03T20:33:54.510Z,21.73
2018-12-03T20:36:20.841Z,21.73
2018-12-03T20:38:47.234Z,21.68
2018-12-03T20:41:13.578Z,21.71
2018-12-03T20:43:39.915Z,21.67
2018-12-03T20:46:06.248Z,21.67
2018-12-03T20:48:32.597Z,21.64
2018-12-03T20:50:58.935Z,21.64
2018-12-03T20:53:25.296Z,21.62
2018-12-03T20:55:51.636Z,21.61
2018-12-03T20:58:18.012Z,21.60
2018-12-03T21:00:44.343Z,21.57
2018-12-03T21:03:10.719Z,21.61
2018-12-03T21:05:37.111Z,21.58
2018-12-03T21:08:03.431Z,21.56
2018-12-03T21:13:30.590Z,21.48
2018-12-03T21:15:56.970Z,21.42
2018-12-03T21:18:23.331Z,21.36
2018-12-03T21:20:49.655Z,21.37
2018-12-03T21:23:16.068Z,21.31
2018-12-03T21:25:42.453Z,21.25
2018-12-03T21:28:08.785Z,21.20
2018-12-03T21:30:35.124Z,21.18
2018-12-03T21:33:01.510Z,21.15
2018-12-03T21:35:27.996Z,21.11
2018-12-03T21:37:54.340Z,21.10
2018-12-03T21:40:20.739Z,21.07
2018-12-03T21:42:47.174Z,21.01
2018-12-03T21:45:13.580Z,20.99
2018-12-03T21:47:39.912Z,20.99
2018-12-03T21:50:07.278Z,20.95
2018-12-03T21:52:32.631Z,20.91
2018-12-03T21:54:58.965Z,20.89
2018-12-03T21:57:25.292Z,20.87
2018-12-03T21:59:56.739Z,20.84
2018-12-03T22:02:18.014Z,20.81
2018-12-03T22:04:44.310Z,20.82
2018-12-03T22:07:10.735Z,20.77
2018-12-03T22:09:37.090Z,20.76
2018-12-03T22:12:03.413Z,20.72
2018-12-03T22:14:29.762Z,20.70
2018-12-03T22:16:56.156Z,20.66
2018-12-03T22:19:22.486Z,20.67
2018-12-03T22:21:48.915Z,20.65
2018-12-03T22:24:15.259Z,20.63
2018-12-03T22:26:41.647Z,20.58
2018-12-03T22:29:07.983Z,20.55
2018-12-03T22:31:34.319Z,20.54
2018-12-03T22:34:00.743Z,20.52
2018-12-03T22:36:27.035Z,20.53
2018-12-03T22:38:53.365Z,20.53
2018-12-03T22:41:19.705Z,20.50
2018-12-03T22:43:46.091Z,20.47
2018-12-03T22:46:12.388Z,20.46
2018-12-03T22:48:38.709Z,20.44
2018-12-03T22:51:05.039Z,20.41
2018-12-03T22:53:31.369Z,20.44
2018-12-03T22:55:59.372Z,20.43
2018-12-03T22:58:25.721Z,20.41
2018-12-03T23:00:52.100Z,20.35
2018-12-03T23:03:18.446Z,20.33
2018-12-03T23:05:44.785Z,20.33
2018-12-03T23:08:11.122Z,20.33
2018-12-03T23:10:37.500Z,20.31
2018-12-03T23:13:03.834Z,20.31
2018-12-03T23:15:30.220Z,20.33
2018-12-03T23:17:56.532Z,20.29
2018-12-03T23:20:22.863Z,20.25
2018-12-03T23:22:49.196Z,20.26
2018-12-03T23:25:15.524Z,20.23
2018-12-03T23:27:41.863Z,20.20
2018-12-03T23:30:08.254Z,20.22
2018-12-03T23:32:34.581Z,20.24
2018-12-03T23:35:00.913Z,20.23
2018-12-03T23:37:27.343Z,20.19
2018-12-03T23:39:53.772Z,20.16
2018-12-03T23:42:20.145Z,20.15
2018-12-03T23:44:46.471Z,20.13
2018-12-03T23:47:12.787Z,20.12
2018-12-03T23:49:39.153Z,20.12
2018-12-03T23:52:05.499Z,20.10
2018-12-03T23:54:31.824Z,20.14
2018-12-03T23:56:58.171Z,20.11
2018-12-03T23:59:24.498Z,20.08
